createdAt,value
2023-04-23T00:01:39.794Z,1005.26
2023-04-23T00:11:46.907Z,1005.26
2023-04-23T00:21:53.572Z,1005.11
2023-04-23T00:32:00.920Z,1005.02
2023-04-23T00:42:07.588Z,1004.93
2023-04-23T00:52:14.908Z,1004.87
2023-04-23T01:02:21.802Z,1004.90
2023-04-23T01:12:28.778Z,1004.84
2023-04-23T01:22:34.999Z,1004.77
2023-04-23T01:32:41.954Z,1004.91
2023-04-23T01:42:49.070Z,1004.86
2023-04-23T01:52:55.902Z,1004.84
2023-04-23T02:03:03.205Z,1004.76
2023-04-23T02:13:10.256Z,1004.76
2023-04-23T02:23:17.791Z,1004.70
2023-04-23T02:33:24.985Z,1004.69
2023-04-23T02:43:32.062Z,1004.69
2023-04-23T02:53:38.232Z,1004.62
2023-04-23T03:03:46.078Z,1004.58
2023-04-23T03:13:53.583Z,1004.56
2023-04-23T03:24:00.652Z,1004.43
2023-04-23T03:34:08.553Z,1004.41
2023-04-23T03:44:16.300Z,1004.39
2023-04-23T03:54:23.889Z,1004.46
2023-04-23T04:04:30.813Z,1004.42
2023-04-23T04:14:38.655Z,1004.33
2023-04-23T04:24:45.657Z,1004.43
2023-04-23T04:34:53.098Z,1004.37
2023-04-23T04:45:00.045Z,1004.41
2023-04-23T04:55:07.071Z,1004.44
2023-04-23T05:05:13.744Z,1004.49
2023-04-23T05:15:20.766Z,1004.58
2023-04-23T05:25:28.259Z,1004.59
2023-04-23T05:35:35.643Z,1004.61
2023-04-23T05:45:43.012Z,1004.72
2023-04-23T05:55:50.342Z,1004.69
2023-04-23T06:05:57.095Z,1004.76
2023-04-23T06:16:04.114Z,1004.78
2023-04-23T06:26:11.614Z,1004.74
2023-04-23T06:36:19.132Z,1004.84
2023-04-23T06:46:26.614Z,1004.95
2023-04-23T06:56:34.124Z,1004.96
2023-04-23T07:06:41.208Z,1004.96
2023-04-23T07:16:48.525Z,1004.96
2023-04-23T07:26:55.674Z,1004.95
2023-04-23T07:37:03.266Z,1004.99
2023-04-23T07:47:10.667Z,1005.10
2023-04-23T07:57:17.876Z,1005.11
2023-04-23T08:07:24.514Z,1005.20
2023-04-23T08:17:31.618Z,1005.10
2023-04-23T08:27:39.073Z,1005.10
2023-04-23T08:37:45.765Z,1005.17
2023-04-23T08:47:52.909Z,1005.19
2023-04-23T08:58:00.316Z,1005.29
2023-04-23T09:08:07.024Z,1005.39
2023-04-23T09:18:13.955Z,1005.50
2023-04-23T09:28:21.347Z,1005.68
2023-04-23T09:38:28.091Z,1005.73
2023-04-23T09:48:35.432Z,1005.75
2023-04-23T09:58:42.419Z,1005.81
2023-04-23T10:08:49.460Z,1005.92
2023-04-23T10:18:56.542Z,1006.04
2023-04-23T10:29:03.212Z,1006.00
2023-04-23T10:39:10.351Z,1005.84
2023-04-23T10:49:17.275Z,1005.85
2023-04-23T10:59:24.413Z,1006.04
2023-04-23T11:09:31.448Z,1005.93
2023-04-23T11:19:38.409Z,1005.92
2023-04-23T11:29:45.700Z,1006.07
2023-04-23T11:39:53.528Z,1006.12
2023-04-23T11:50:00.883Z,1005.99
2023-04-23T12:00:07.438Z,1005.91
2023-04-23T12:10:16.584Z,1005.99
2023-04-23T12:20:23.656Z,1006.12
2023-04-23T12:30:30.950Z,1006.11
2023-04-23T12:40:38.182Z,1006.09
2023-04-23T12:50:44.793Z,1006.01
2023-04-23T13:00:52.347Z,1005.98
2023-04-23T13:10:59.972Z,1005.95
2023-04-23T13:21:07.464Z,1005.88
2023-04-23T13:31:14.477Z,1005.73
2023-04-23T13:41:21.438Z,1005.62
2023-04-23T13:51:35.389Z,1005.53
2023-04-23T14:01:40.561Z,1005.48
2023-04-23T14:11:47.205Z,1005.45
2023-04-23T14:21:54.257Z,1005.34
2023-04-23T14:32:01.470Z,1005.26
2023-04-23T14:42:09.478Z,1005.09
2023-04-23T14:52:16.656Z,1005.02
2023-04-23T15:02:23.806Z,1004.93
2023-04-23T15:12:31.488Z,1004.78
2023-04-23T15:22:38.763Z,1004.74
2023-04-23T15:32:45.690Z,1004.72
2023-04-23T15:42:52.380Z,1004.65
2023-04-23T15:52:59.370Z,1004.69
2023-04-23T16:03:06.252Z,1004.49
2023-04-23T16:13:13.719Z,1004.46
2023-04-23T16:23:20.975Z,1004.37
2023-04-23T16:33:28.132Z,1004.31
2023-04-23T16:43:35.144Z,1004.24
2023-04-23T16:53:42.267Z,1004.19
2023-04-23T17:03:50.161Z,1003.94
2023-04-23T17:13:57.814Z,1003.97
2023-04-23T17:24:05.226Z,1003.90
2023-04-23T17:34:12.025Z,1003.81
2023-04-23T17:44:19.120Z,1003.76
2023-04-23T17:54:26.114Z,1003.70
2023-04-23T18:04:33.361Z,1003.73
2023-04-23T18:14:40.721Z,1003.76
2023-04-23T18:24:47.050Z,1003.81
2023-04-23T18:34:54.327Z,1003.88
2023-04-23T18:45:00.752Z,1003.99
2023-04-23T18:55:07.917Z,1003.85
2023-04-23T19:05:15.342Z,1003.86
2023-04-23T19:15:22.704Z,1003.90
2023-04-23T19:25:29.842Z,1003.87
2023-04-23T19:35:39.933Z,1003.71
2023-04-23T19:45:47.642Z,1003.64
2023-04-23T19:55:54.890Z,1003.58
2023-04-23T20:06:02.101Z,1003.49
2023-04-23T20:16:08.624Z,1003.44
2023-04-23T20:26:16.138Z,1003.43
2023-04-23T20:36:22.737Z,1003.37
2023-04-23T20:46:30.167Z,1003.22
2023-04-23T20:56:38.235Z,1003.06
2023-04-23T21:06:45.009Z,1002.95
2023-04-23T21:16:52.247Z,1002.77
2023-04-23T21:26:59.028Z,1002.60
2023-04-23T21:37:06.491Z,1002.56
2023-04-23T21:47:13.571Z,1002.32
2023-04-23T21:57:20.307Z,1002.34
2023-04-23T22:07:27.489Z,1002.41
2023-04-23T22:17:34.383Z,1002.52
2023-04-23T22:27:41.293Z,1002.49
2023-04-23T22:37:48.832Z,1002.47
2023-04-23T22:47:55.681Z,1002.32
2023-04-23T22:58:03.070Z,1002.15
2023-04-23T23:08:10.974Z,1002.02
2023-04-23T23:18:17.692Z,1001.75
2023-04-23T23:28:25.103Z,1001.64
2023-04-23T23:38:31.888Z,1001.50
2023-04-23T23:48:39.006Z,1001.42
2023-04-23T23:58:45.708Z,1001.26
